sensor_id;sensor_type;location;lat;lon;timestamp;P1;durP1;ratioP1;P2;durP2;ratioP2
57730;SDS011;43570;47.476;19.040;2023-02-15T00:01:05;40.90;;;29.30;;
57730;SDS011;43570;47.476;19.040;2023-02-15T00:03:32;38.90;;;28.73;;
57730;SDS011;43570;47.476;19.040;2023-02-15T00:05:57;36.95;;;28.98;;
57730;SDS011;43570;47.476;19.040;2023-02-15T00:08:23;37.30;;;28.73;;
57730;SDS011;43570;47.476;19.040;2023-02-15T00:10:48;36.97;;;28.15;;
57730;SDS011;43570;47.476;19.040;2023-02-15T00:13:14;37.65;;;29.87;;
57730;SDS011;43570;47.476;19.040;2023-02-15T00:15:39;40.85;;;29.60;;
57730;SDS011;43570;47.476;19.040;2023-02-15T00:18:05;35.22;;;28.73;;
57730;SDS011;43570;47.476;19.040;2023-02-15T00:20:30;35.72;;;29.33;;
57730;SDS011;43570;47.476;19.040;2023-02-15T00:22:55;36.40;;;28.23;;
57730;SDS011;43570;47.476;19.040;2023-02-15T00:25:21;37.20;;;28.62;;
57730;SDS011;43570;47.476;19.040;2023-02-15T00:27:46;37.95;;;30.02;;
57730;SDS011;43570;47.476;19.040;2023-02-15T00:30:12;37.00;;;29.87;;
57730;SDS011;43570;47.476;19.040;2023-02-15T00:32:37;34.38;;;28.05;;
57730;SDS011;43570;47.476;19.040;2023-02-15T00:35:03;35.47;;;28.42;;
57730;SDS011;43570;47.476;19.040;2023-02-15T00:37:29;36.88;;;28.10;;
57730;SDS011;43570;47.476;19.040;2023-02-15T00:39:54;36.30;;;28.10;;
57730;SDS011;43570;47.476;19.040;2023-02-15T00:42:19;35.38;;;27.80;;
57730;SDS011;43570;47.476;19.040;2023-02-15T00:44:45;34.00;;;26.52;;
57730;SDS011;43570;47.476;19.040;2023-02-15T00:47:10;36.60;;;27.98;;
57730;SDS011;43570;47.476;19.040;2023-02-15T00:49:36;32.63;;;26.75;;
57730;SDS011;43570;47.476;19.040;2023-02-15T00:52:01;36.50;;;28.05;;
57730;SDS011;43570;47.476;19.040;2023-02-15T00:54:26;33.47;;;26.67;;
57730;SDS011;43570;47.476;19.040;2023-02-15T00:56:52;32.88;;;26.42;;
57730;SDS011;43570;47.476;19.040;2023-02-15T00:59:18;34.40;;;28.15;;
57730;SDS011;43570;47.476;19.040;2023-02-15T01:01:43;35.05;;;27.15;;
57730;SDS011;43570;47.476;19.040;2023-02-15T01:04:08;33.97;;;27.42;;
57730;SDS011;43570;47.476;19.040;2023-02-15T01:06:34;36.83;;;28.05;;
57730;SDS011;43570;47.476;19.040;2023-02-15T01:08:59;35.17;;;25.98;;
57730;SDS011;43570;47.476;19.040;2023-02-15T01:11:25;32.55;;;26.02;;
57730;SDS011;43570;47.476;19.040;2023-02-15T01:13:51;33.08;;;26.15;;
57730;SDS011;43570;47.476;19.040;2023-02-15T01:16:18;35.10;;;27.33;;
57730;SDS011;43570;47.476;19.040;2023-02-15T01:18:44;34.55;;;27.17;;
57730;SDS011;43570;47.476;19.040;2023-02-15T01:21:14;33.22;;;26.62;;
57730;SDS011;43570;47.476;19.040;2023-02-15T01:23:43;38.47;;;28.48;;
57730;SDS011;43570;47.476;19.040;2023-02-15T01:28:53;35.92;;;27.48;;
57730;SDS011;43570;47.476;19.040;2023-02-15T01:31:19;33.65;;;25.70;;
57730;SDS011;43570;47.476;19.040;2023-02-15T01:33:46;33.58;;;26.65;;
57730;SDS011;43570;47.476;19.040;2023-02-15T01:36:12;33.97;;;27.05;;
57730;SDS011;43570;47.476;19.040;2023-02-15T01:38:38;35.97;;;26.90;;
57730;SDS011;43570;47.476;19.040;2023-02-15T01:41:05;35.08;;;27.20;;
57730;SDS011;43570;47.476;19.040;2023-02-15T01:43:48;36.03;;;27.45;;
57730;SDS011;43570;47.476;19.040;2023-02-15T01:46:43;36.67;;;27.98;;
57730;SDS011;43570;47.476;19.040;2023-02-15T01:49:12;34.40;;;28.15;;
57730;SDS011;43570;47.476;19.040;2023-02-15T01:51:41;36.60;;;28.13;;
57730;SDS011;43570;47.476;19.040;2023-02-15T01:54:14;36.70;;;28.65;;
57730;SDS011;43570;47.476;19.040;2023-02-15T01:56:43;36.95;;;27.15;;
57730;SDS011;43570;47.476;19.040;2023-02-15T01:59:12;36.40;;;28.05;;
57730;SDS011;43570;47.476;19.040;2023-02-15T02:01:41;32.60;;;24.70;;
57730;SDS011;43570;47.476;19.040;2023-02-15T02:04:14;29.85;;;23.80;;
57730;SDS011;43570;47.476;19.040;2023-02-15T02:06:51;34.40;;;25.50;;
57730;SDS011;43570;47.476;19.040;2023-02-15T02:09:17;31.95;;;23.27;;
57730;SDS011;43570;47.476;19.040;2023-02-15T02:11:44;34.55;;;24.95;;
57730;SDS011;43570;47.476;19.040;2023-02-15T02:14:10;31.25;;;24.42;;
57730;SDS011;43570;47.476;19.040;2023-02-15T02:27:44;30.62;;;23.60;;
57730;SDS011;43570;47.476;19.040;2023-02-15T02:36:46;31.87;;;23.20;;
57730;SDS011;43570;47.476;19.040;2023-02-15T02:44:26;28.35;;;22.58;;
57730;SDS011;43570;47.476;19.040;2023-02-15T02:47:08;26.83;;;21.40;;
57730;SDS011;43570;47.476;19.040;2023-02-15T02:49:41;27.33;;;21.50;;
57730;SDS011;43570;47.476;19.040;2023-02-15T02:55:06;28.35;;;22.08;;
57730;SDS011;43570;47.476;19.040;2023-02-15T02:57:35;29.65;;;23.85;;
57730;SDS011;43570;47.476;19.040;2023-02-15T03:00:03;30.20;;;23.70;;
57730;SDS011;43570;47.476;19.040;2023-02-15T03:02:32;32.80;;;26.35;;
57730;SDS011;43570;47.476;19.040;2023-02-15T03:05:02;33.30;;;27.33;;
57730;SDS011;43570;47.476;19.040;2023-02-15T03:07:30;38.63;;;29.80;;
57730;SDS011;43570;47.476;19.040;2023-02-15T03:09:57;37.08;;;28.80;;
57730;SDS011;43570;47.476;19.040;2023-02-15T03:12:24;33.97;;;27.10;;
57730;SDS011;43570;47.476;19.040;2023-02-15T03:15:16;36.03;;;27.85;;
57730;SDS011;43570;47.476;19.040;2023-02-15T03:17:42;39.13;;;30.20;;
57730;SDS011;43570;47.476;19.040;2023-02-15T03:20:12;35.67;;;29.15;;
57730;SDS011;43570;47.476;19.040;2023-02-15T03:22:48;39.47;;;29.80;;
57730;SDS011;43570;47.476;19.040;2023-02-15T03:25:17;40.58;;;31.40;;
57730;SDS011;43570;47.476;19.040;2023-02-15T03:27:47;39.75;;;31.17;;
57730;SDS011;43570;47.476;19.040;2023-02-15T03:30:15;40.05;;;30.70;;
57730;SDS011;43570;47.476;19.040;2023-02-15T03:32:40;38.85;;;32.10;;
57730;SDS011;43570;47.476;19.040;2023-02-15T03:35:06;42.60;;;31.35;;
57730;SDS011;43570;47.476;19.040;2023-02-15T03:37:35;42.03;;;31.98;;
57730;SDS011;43570;47.476;19.040;2023-02-15T03:42:53;42.20;;;33.28;;
57730;SDS011;43570;47.476;19.040;2023-02-15T03:45:24;40.60;;;32.78;;
57730;SDS011;43570;47.476;19.040;2023-02-15T03:47:51;41.97;;;32.78;;
57730;SDS011;43570;47.476;19.040;2023-02-15T03:53:03;40.03;;;31.40;;
57730;SDS011;43570;47.476;19.040;2023-02-15T03:55:31;43.50;;;33.53;;
57730;SDS011;43570;47.476;19.040;2023-02-15T03:57:59;43.63;;;31.90;;
57730;SDS011;43570;47.476;19.040;2023-02-15T04:00:52;45.40;;;34.35;;
57730;SDS011;43570;47.476;19.040;2023-02-15T04:03:42;45.40;;;32.72;;
57730;SDS011;43570;47.476;19.040;2023-02-15T04:06:10;41.97;;;32.38;;
57730;SDS011;43570;47.476;19.040;2023-02-15T04:08:35;42.97;;;32.22;;
57730;SDS011;43570;47.476;19.040;2023-02-15T04:11:19;41.60;;;32.72;;
57730;SDS011;43570;47.476;19.040;2023-02-15T04:13:44;43.33;;;33.08;;
57730;SDS011;43570;47.476;19.040;2023-02-15T04:16:09;43.60;;;32.72;;
57730;SDS011;43570;47.476;19.040;2023-02-15T04:18:36;39.63;;;29.77;;
57730;SDS011;43570;47.476;19.040;2023-02-15T04:21:22;36.05;;;28.50;;
57730;SDS011;43570;47.476;19.040;2023-02-15T04:24:08;35.90;;;27.48;;
57730;SDS011;43570;47.476;19.040;2023-02-15T04:26:52;27.17;;;22.60;;
57730;SDS011;43570;47.476;19.040;2023-02-15T04:29:18;31.00;;;23.92;;
57730;SDS011;43570;47.476;19.040;2023-02-15T04:31:44;32.90;;;24.98;;
57730;SDS011;43570;47.476;19.040;2023-02-15T04:34:10;32.63;;;24.42;;
57730;SDS011;43570;47.476;19.040;2023-02-15T04:36:36;30.62;;;24.37;;
57730;SDS011;43570;47.476;19.040;2023-02-15T04:39:02;30.85;;;24.10;;
57730;SDS011;43570;47.476;19.040;2023-02-15T04:41:27;32.20;;;23.65;;
57730;SDS011;43570;47.476;19.040;2023-02-15T04:43:53;35.92;;;26.45;;
57730;SDS011;43570;47.476;19.040;2023-02-15T04:46:18;33.67;;;26.12;;
57730;SDS011;43570;47.476;19.040;2023-02-15T04:48:44;32.90;;;24.55;;
57730;SDS011;43570;47.476;19.040;2023-02-15T04:51:09;32.85;;;24.98;;
57730;SDS011;43570;47.476;19.040;2023-02-15T04:53:35;31.08;;;24.77;;
57730;SDS011;43570;47.476;19.040;2023-02-15T04:56:01;35.92;;;26.65;;
57730;SDS011;43570;47.476;19.040;2023-02-15T04:58:26;33.15;;;25.85;;
57730;SDS011;43570;47.476;19.040;2023-02-15T05:00:54;33.63;;;25.52;;
57730;SDS011;43570;47.476;19.040;2023-02-15T05:03:20;34.15;;;25.00;;
57730;SDS011;43570;47.476;19.040;2023-02-15T05:05:45;35.25;;;25.37;;
57730;SDS011;43570;47.476;19.040;2023-02-15T05:08:11;32.20;;;24.75;;
57730;SDS011;43570;47.476;19.040;2023-02-15T05:10:36;30.35;;;23.55;;
57730;SDS011;43570;47.476;19.040;2023-02-15T05:13:01;34.33;;;25.02;;
57730;SDS011;43570;47.476;19.040;2023-02-15T05:15:27;34.10;;;24.92;;
57730;SDS011;43570;47.476;19.040;2023-02-15T05:17:52;35.65;;;26.20;;
57730;SDS011;43570;47.476;19.040;2023-02-15T05:20:18;34.65;;;25.98;;
57730;SDS011;43570;47.476;19.040;2023-02-15T05:22:43;35.15;;;26.40;;
57730;SDS011;43570;47.476;19.040;2023-02-15T05:25:09;37.33;;;26.45;;
57730;SDS011;43570;47.476;19.040;2023-02-15T05:27:53;34.97;;;25.98;;
57730;SDS011;43570;47.476;19.040;2023-02-15T05:30:37;35.63;;;26.42;;
57730;SDS011;43570;47.476;19.040;2023-02-15T05:33:04;37.05;;;27.23;;
57730;SDS011;43570;47.476;19.040;2023-02-15T05:35:31;40.10;;;27.30;;
57730;SDS011;43570;47.476;19.040;2023-02-15T05:37:56;37.10;;;27.48;;
57730;SDS011;43570;47.476;19.040;2023-02-15T05:40:22;39.05;;;29.85;;
57730;SDS011;43570;47.476;19.040;2023-02-15T05:42:47;37.20;;;28.80;;
57730;SDS011;43570;47.476;19.040;2023-02-15T05:45:13;43.35;;;28.05;;
57730;SDS011;43570;47.476;19.040;2023-02-15T05:47:38;62.45;;;45.20;;
57730;SDS011;43570;47.476;19.040;2023-02-15T05:50:04;55.70;;;41.33;;
57730;SDS011;43570;47.476;19.040;2023-02-15T05:52:29;35.03;;;26.35;;
57730;SDS011;43570;47.476;19.040;2023-02-15T05:54:55;36.22;;;26.40;;
57730;SDS011;43570;47.476;19.040;2023-02-15T05:57:20;40.45;;;25.95;;
57730;SDS011;43570;47.476;19.040;2023-02-15T05:59:46;36.08;;;26.30;;
57730;SDS011;43570;47.476;19.040;2023-02-15T06:02:11;36.25;;;26.08;;
57730;SDS011;43570;47.476;19.040;2023-02-15T06:04:37;35.13;;;25.83;;
57730;SDS011;43570;47.476;19.040;2023-02-15T06:07:03;33.80;;;24.58;;
57730;SDS011;43570;47.476;19.040;2023-02-15T06:09:28;30.08;;;24.30;;
57730;SDS011;43570;47.476;19.040;2023-02-15T06:11:54;33.10;;;24.33;;
57730;SDS011;43570;47.476;19.040;2023-02-15T06:14:19;31.67;;;23.12;;
57730;SDS011;43570;47.476;19.040;2023-02-15T06:16:44;32.13;;;23.70;;
57730;SDS011;43570;47.476;19.040;2023-02-15T06:19:10;33.97;;;24.58;;
57730;SDS011;43570;47.476;19.040;2023-02-15T06:21:35;31.77;;;24.75;;
57730;SDS011;43570;47.476;19.040;2023-02-15T06:24:01;32.97;;;24.27;;
57730;SDS011;43570;47.476;19.040;2023-02-15T06:26:26;34.53;;;25.95;;
57730;SDS011;43570;47.476;19.040;2023-02-15T06:28:52;32.00;;;24.77;;
57730;SDS011;43570;47.476;19.040;2023-02-15T06:31:17;34.28;;;27.10;;
57730;SDS011;43570;47.476;19.040;2023-02-15T06:33:42;34.20;;;25.90;;
57730;SDS011;43570;47.476;19.040;2023-02-15T06:36:08;30.83;;;26.20;;
57730;SDS011;43570;47.476;19.040;2023-02-15T06:38:33;32.50;;;24.35;;
57730;SDS011;43570;47.476;19.040;2023-02-15T06:40:59;36.70;;;27.17;;
57730;SDS011;43570;47.476;19.040;2023-02-15T06:43:24;32.72;;;25.65;;
57730;SDS011;43570;47.476;19.040;2023-02-15T06:45:49;35.05;;;25.83;;
57730;SDS011;43570;47.476;19.040;2023-02-15T06:48:15;31.35;;;25.27;;
57730;SDS011;43570;47.476;19.040;2023-02-15T06:50:40;35.72;;;28.52;;
57730;SDS011;43570;47.476;19.040;2023-02-15T06:53:06;38.17;;;28.65;;
57730;SDS011;43570;47.476;19.040;2023-02-15T06:55:31;39.28;;;28.30;;
57730;SDS011;43570;47.476;19.040;2023-02-15T06:57:57;34.50;;;26.95;;
57730;SDS011;43570;47.476;19.040;2023-02-15T07:00:22;35.47;;;28.02;;
57730;SDS011;43570;47.476;19.040;2023-02-15T07:02:52;37.45;;;29.42;;
57730;SDS011;43570;47.476;19.040;2023-02-15T07:05:20;35.10;;;27.73;;
57730;SDS011;43570;47.476;19.040;2023-02-15T07:07:46;39.83;;;28.23;;
57730;SDS011;43570;47.476;19.040;2023-02-15T07:10:11;33.72;;;27.20;;
57730;SDS011;43570;47.476;19.040;2023-02-15T07:12:36;40.65;;;29.77;;
57730;SDS011;43570;47.476;19.040;2023-02-15T07:15:11;39.70;;;28.33;;
57730;SDS011;43570;47.476;19.040;2023-02-15T07:17:38;38.75;;;27.70;;
57730;SDS011;43570;47.476;19.040;2023-02-15T07:20:05;37.67;;;29.17;;
57730;SDS011;43570;47.476;19.040;2023-02-15T07:22:33;36.53;;;28.33;;
57730;SDS011;43570;47.476;19.040;2023-02-15T07:25:00;34.60;;;26.70;;
57730;SDS011;43570;47.476;19.040;2023-02-15T07:27:26;34.45;;;28.87;;
57730;SDS011;43570;47.476;19.040;2023-02-15T07:29:52;37.15;;;27.20;;
57730;SDS011;43570;47.476;19.040;2023-02-15T07:32:17;31.17;;;26.10;;
57730;SDS011;43570;47.476;19.040;2023-02-15T07:34:43;36.17;;;27.95;;
57730;SDS011;43570;47.476;19.040;2023-02-15T07:37:08;31.23;;;26.02;;
57730;SDS011;43570;47.476;19.040;2023-02-15T07:39:33;37.47;;;27.98;;
57730;SDS011;43570;47.476;19.040;2023-02-15T07:41:59;36.50;;;28.80;;
57730;SDS011;43570;47.476;19.040;2023-02-15T07:44:25;34.05;;;28.52;;
57730;SDS011;43570;47.476;19.040;2023-02-15T07:46:50;31.75;;;26.87;;
57730;SDS011;43570;47.476;19.040;2023-02-15T07:49:16;31.73;;;26.65;;
57730;SDS011;43570;47.476;19.040;2023-02-15T07:51:41;31.27;;;26.12;;
57730;SDS011;43570;47.476;19.040;2023-02-15T07:54:06;32.15;;;26.37;;
57730;SDS011;43570;47.476;19.040;2023-02-15T07:56:32;35.20;;;26.52;;
57730;SDS011;43570;47.476;19.040;2023-02-15T07:58:58;34.58;;;27.83;;
57730;SDS011;43570;47.476;19.040;2023-02-15T08:01:29;34.72;;;27.58;;
57730;SDS011;43570;47.476;19.040;2023-02-15T08:03:56;34.85;;;28.02;;
57730;SDS011;43570;47.476;19.040;2023-02-15T08:06:23;39.45;;;28.65;;
57730;SDS011;43570;47.476;19.040;2023-02-15T08:08:50;31.23;;;27.83;;
57730;SDS011;43570;47.476;19.040;2023-02-15T08:11:17;35.60;;;28.25;;
57730;SDS011;43570;47.476;19.040;2023-02-15T08:14:13;37.60;;;28.62;;
57730;SDS011;43570;47.476;19.040;2023-02-15T08:21:41;35.42;;;29.63;;
57730;SDS011;43570;47.476;19.040;2023-02-15T08:24:09;38.65;;;31.17;;
57730;SDS011;43570;47.476;19.040;2023-02-15T08:26:35;36.60;;;30.50;;
57730;SDS011;43570;47.476;19.040;2023-02-15T08:29:01;34.75;;;29.33;;
57730;SDS011;43570;47.476;19.040;2023-02-15T08:31:27;41.88;;;31.05;;
57730;SDS011;43570;47.476;19.040;2023-02-15T08:33:54;37.90;;;31.37;;
57730;SDS011;43570;47.476;19.040;2023-02-15T08:36:21;40.65;;;31.35;;
57730;SDS011;43570;47.476;19.040;2023-02-15T08:38:48;39.15;;;32.53;;
57730;SDS011;43570;47.476;19.040;2023-02-15T08:41:17;40.05;;;31.92;;
57730;SDS011;43570;47.476;19.040;2023-02-15T08:43:44;39.90;;;30.40;;
57730;SDS011;43570;47.476;19.040;2023-02-15T08:46:10;38.08;;;31.35;;
57730;SDS011;43570;47.476;19.040;2023-02-15T08:48:36;36.88;;;30.35;;
57730;SDS011;43570;47.476;19.040;2023-02-15T08:51:06;38.45;;;31.48;;
57730;SDS011;43570;47.476;19.040;2023-02-15T08:53:32;35.65;;;31.30;;
57730;SDS011;43570;47.476;19.040;2023-02-15T08:55:58;41.13;;;32.58;;
57730;SDS011;43570;47.476;19.040;2023-02-15T08:58:24;37.33;;;30.40;;
57730;SDS011;43570;47.476;19.040;2023-02-15T09:00:50;37.17;;;31.83;;
57730;SDS011;43570;47.476;19.040;2023-02-15T09:03:15;36.50;;;30.23;;
57730;SDS011;43570;47.476;19.040;2023-02-15T09:05:41;35.28;;;29.20;;
57730;SDS011;43570;47.476;19.040;2023-02-15T09:08:06;37.22;;;31.85;;
57730;SDS011;43570;47.476;19.040;2023-02-15T09:10:32;40.08;;;31.08;;
57730;SDS011;43570;47.476;19.040;2023-02-15T09:12:57;37.60;;;30.85;;
57730;SDS011;43570;47.476;19.040;2023-02-15T09:15:22;35.80;;;30.42;;
57730;SDS011;43570;47.476;19.040;2023-02-15T09:17:48;40.65;;;32.42;;
57730;SDS011;43570;47.476;19.040;2023-02-15T09:20:13;39.33;;;32.25;;
57730;SDS011;43570;47.476;19.040;2023-02-15T09:22:39;39.90;;;33.22;;
57730;SDS011;43570;47.476;19.040;2023-02-15T09:25:04;41.45;;;33.25;;
57730;SDS011;43570;47.476;19.040;2023-02-15T09:27:30;41.28;;;34.10;;
57730;SDS011;43570;47.476;19.040;2023-02-15T09:29:55;43.53;;;35.28;;
57730;SDS011;43570;47.476;19.040;2023-02-15T09:32:20;45.63;;;34.35;;
57730;SDS011;43570;47.476;19.040;2023-02-15T09:34:47;42.47;;;33.95;;
57730;SDS011;43570;47.476;19.040;2023-02-15T09:37:12;37.65;;;32.30;;
57730;SDS011;43570;47.476;19.040;2023-02-15T09:39:39;42.15;;;33.13;;
57730;SDS011;43570;47.476;19.040;2023-02-15T09:44:57;36.67;;;31.45;;
57730;SDS011;43570;47.476;19.040;2023-02-15T10:07:12;37.13;;;30.92;;
57730;SDS011;43570;47.476;19.040;2023-02-15T10:10:03;47.38;;;35.15;;
57730;SDS011;43570;47.476;19.040;2023-02-15T10:23:28;36.25;;;30.45;;
57730;SDS011;43570;47.476;19.040;2023-02-15T10:26:19;36.60;;;31.90;;
57730;SDS011;43570;47.476;19.040;2023-02-15T10:28:51;36.85;;;31.83;;
57730;SDS011;43570;47.476;19.040;2023-02-15T10:31:27;38.97;;;31.90;;
57730;SDS011;43570;47.476;19.040;2023-02-15T10:45:23;31.50;;;27.17;;
57730;SDS011;43570;47.476;19.040;2023-02-15T10:50:39;34.22;;;28.87;;
57730;SDS011;43570;47.476;19.040;2023-02-15T11:06:32;41.78;;;31.83;;
57730;SDS011;43570;47.476;19.040;2023-02-15T11:09:01;36.53;;;31.85;;
57730;SDS011;43570;47.476;19.040;2023-02-15T11:11:30;38.15;;;32.45;;
57730;SDS011;43570;47.476;19.040;2023-02-15T11:13:59;39.10;;;34.88;;
57730;SDS011;43570;47.476;19.040;2023-02-15T11:16:32;37.47;;;32.58;;
57730;SDS011;43570;47.476;19.040;2023-02-15T11:19:09;38.42;;;34.17;;
57730;SDS011;43570;47.476;19.040;2023-02-15T11:21:42;41.72;;;35.58;;
57730;SDS011;43570;47.476;19.040;2023-02-15T11:24:14;38.88;;;34.67;;
57730;SDS011;43570;47.476;19.040;2023-02-15T11:32:23;38.40;;;34.13;;
57730;SDS011;43570;47.476;19.040;2023-02-15T11:35:01;40.33;;;32.83;;
57730;SDS011;43570;47.476;19.040;2023-02-15T11:42:55;36.58;;;32.67;;
57730;SDS011;43570;47.476;19.040;2023-02-15T11:47:54;36.55;;;31.67;;
57730;SDS011;43570;47.476;19.040;2023-02-15T11:50:22;35.28;;;30.75;;
57730;SDS011;43570;47.476;19.040;2023-02-15T11:52:52;35.63;;;31.57;;
57730;SDS011;43570;47.476;19.040;2023-02-15T11:55:41;34.65;;;30.60;;
57730;SDS011;43570;47.476;19.040;2023-02-15T12:00:40;33.40;;;29.87;;
57730;SDS011;43570;47.476;19.040;2023-02-15T12:03:13;34.13;;;29.80;;
57730;SDS011;43570;47.476;19.040;2023-02-15T12:06:00;35.42;;;30.55;;
57730;SDS011;43570;47.476;19.040;2023-02-15T12:08:30;34.85;;;31.17;;
57730;SDS011;43570;47.476;19.040;2023-02-15T12:11:06;32.03;;;28.65;;
57730;SDS011;43570;47.476;19.040;2023-02-15T12:13:37;35.78;;;29.67;;
57730;SDS011;43570;47.476;19.040;2023-02-15T12:16:20;33.22;;;29.63;;
57730;SDS011;43570;47.476;19.040;2023-02-15T12:18:45;34.25;;;30.55;;
57730;SDS011;43570;47.476;19.040;2023-02-15T12:21:23;33.58;;;29.90;;
57730;SDS011;43570;47.476;19.040;2023-02-15T12:23:51;32.42;;;28.35;;
57730;SDS011;43570;47.476;19.040;2023-02-15T12:26:26;33.08;;;29.50;;
57730;SDS011;43570;47.476;19.040;2023-02-15T12:28:53;33.08;;;29.08;;
57730;SDS011;43570;47.476;19.040;2023-02-15T12:33:48;32.58;;;28.65;;
57730;SDS011;43570;47.476;19.040;2023-02-15T12:36:20;33.63;;;29.55;;
57730;SDS011;43570;47.476;19.040;2023-02-15T12:41:37;32.42;;;28.92;;
57730;SDS011;43570;47.476;19.040;2023-02-15T12:44:18;32.47;;;28.80;;
57730;SDS011;43570;47.476;19.040;2023-02-15T12:49:26;31.05;;;27.65;;
57730;SDS011;43570;47.476;19.040;2023-02-15T12:52:03;30.83;;;27.17;;
57730;SDS011;43570;47.476;19.040;2023-02-15T12:57:01;31.58;;;27.13;;
57730;SDS011;43570;47.476;19.040;2023-02-15T12:59:57;29.33;;;26.12;;
57730;SDS011;43570;47.476;19.040;2023-02-15T13:04:50;30.95;;;26.58;;
57730;SDS011;43570;47.476;19.040;2023-02-15T13:07:16;29.02;;;25.50;;
57730;SDS011;43570;47.476;19.040;2023-02-15T13:09:42;30.48;;;25.62;;
57730;SDS011;43570;47.476;19.040;2023-02-15T13:12:10;30.77;;;25.25;;
57730;SDS011;43570;47.476;19.040;2023-02-15T13:14:44;26.90;;;24.00;;
57730;SDS011;43570;47.476;19.040;2023-02-15T13:17:10;29.05;;;26.00;;
57730;SDS011;43570;47.476;19.040;2023-02-15T13:19:47;26.60;;;23.55;;
57730;SDS011;43570;47.476;19.040;2023-02-15T13:22:14;26.42;;;23.62;;
57730;SDS011;43570;47.476;19.040;2023-02-15T13:25:25;25.98;;;23.17;;
57730;SDS011;43570;47.476;19.040;2023-02-15T13:27:37;26.15;;;23.40;;
57730;SDS011;43570;47.476;19.040;2023-02-15T13:30:10;28.77;;;23.92;;
57730;SDS011;43570;47.476;19.040;2023-02-15T13:33:04;26.83;;;24.02;;
57730;SDS011;43570;47.476;19.040;2023-02-15T13:38:55;27.48;;;24.35;;
57730;SDS011;43570;47.476;19.040;2023-02-15T13:57:31;28.15;;;23.80;;
57730;SDS011;43570;47.476;19.040;2023-02-15T14:08:13;25.73;;;22.27;;
57730;SDS011;43570;47.476;19.040;2023-02-15T14:19:13;27.25;;;24.10;;
57730;SDS011;43570;47.476;19.040;2023-02-15T14:21:56;27.65;;;23.73;;
57730;SDS011;43570;47.476;19.040;2023-02-15T14:24:29;27.83;;;23.48;;
57730;SDS011;43570;47.476;19.040;2023-02-15T14:30:00;27.08;;;23.55;;
57730;SDS011;43570;47.476;19.040;2023-02-15T14:32:33;29.48;;;25.92;;
57730;SDS011;43570;47.476;19.040;2023-02-15T14:35:03;30.12;;;24.92;;
57730;SDS011;43570;47.476;19.040;2023-02-15T14:37:41;29.73;;;26.48;;
57730;SDS011;43570;47.476;19.040;2023-02-15T14:46:15;30.40;;;27.10;;
57730;SDS011;43570;47.476;19.040;2023-02-15T14:59:25;33.65;;;26.75;;
57730;SDS011;43570;47.476;19.040;2023-02-15T15:01:52;32.13;;;27.65;;
57730;SDS011;43570;47.476;19.040;2023-02-15T15:04:33;32.63;;;27.40;;
57730;SDS011;43570;47.476;19.040;2023-02-15T15:09:45;32.05;;;27.35;;
57730;SDS011;43570;47.476;19.040;2023-02-15T15:14:48;33.67;;;28.38;;
57730;SDS011;43570;47.476;19.040;2023-02-15T15:22:38;35.63;;;29.05;;
57730;SDS011;43570;47.476;19.040;2023-02-15T15:25:09;34.10;;;29.00;;
57730;SDS011;43570;47.476;19.040;2023-02-15T15:35:23;37.45;;;29.90;;
57730;SDS011;43570;47.476;19.040;2023-02-15T15:49:24;37.70;;;28.87;;
57730;SDS011;43570;47.476;19.040;2023-02-15T15:51:52;33.28;;;29.45;;
57730;SDS011;43570;47.476;19.040;2023-02-15T15:54:18;35.58;;;29.92;;
57730;SDS011;43570;47.476;19.040;2023-02-15T15:56:47;36.25;;;29.90;;
57730;SDS011;43570;47.476;19.040;2023-02-15T15:59:22;32.55;;;27.85;;
57730;SDS011;43570;47.476;19.040;2023-02-15T16:01:52;35.85;;;29.95;;
57730;SDS011;43570;47.476;19.040;2023-02-15T16:04:31;44.85;;;35.78;;
57730;SDS011;43570;47.476;19.040;2023-02-15T16:07:05;43.55;;;35.13;;
57730;SDS011;43570;47.476;19.040;2023-02-15T16:09:41;38.08;;;29.05;;
57730;SDS011;43570;47.476;19.040;2023-02-15T16:12:28;38.75;;;30.75;;
57730;SDS011;43570;47.476;19.040;2023-02-15T16:14:56;40.83;;;30.50;;
57730;SDS011;43570;47.476;19.040;2023-02-15T16:17:25;37.05;;;30.45;;
57730;SDS011;43570;47.476;19.040;2023-02-15T16:20:06;40.22;;;31.92;;
57730;SDS011;43570;47.476;19.040;2023-02-15T16:22:38;39.22;;;30.52;;
57730;SDS011;43570;47.476;19.040;2023-02-15T16:25:08;38.88;;;31.25;;
57730;SDS011;43570;47.476;19.040;2023-02-15T16:27:49;37.15;;;31.45;;
57730;SDS011;43570;47.476;19.040;2023-02-15T16:33:03;39.00;;;31.30;;
57730;SDS011;43570;47.476;19.040;2023-02-15T16:35:54;37.80;;;31.33;;
57730;SDS011;43570;47.476;19.040;2023-02-15T16:38:34;41.47;;;32.40;;
57730;SDS011;43570;47.476;19.040;2023-02-15T16:41:09;49.47;;;40.55;;
57730;SDS011;43570;47.476;19.040;2023-02-15T16:43:36;38.85;;;31.52;;
57730;SDS011;43570;47.476;19.040;2023-02-15T16:46:03;42.67;;;34.30;;
57730;SDS011;43570;47.476;19.040;2023-02-15T16:48:30;42.08;;;34.20;;
57730;SDS011;43570;47.476;19.040;2023-02-15T16:50:56;41.60;;;33.80;;
57730;SDS011;43570;47.476;19.040;2023-02-15T16:53:23;44.60;;;36.20;;
57730;SDS011;43570;47.476;19.040;2023-02-15T16:55:57;44.03;;;34.38;;
57730;SDS011;43570;47.476;19.040;2023-02-15T17:01:03;40.97;;;33.30;;
57730;SDS011;43570;47.476;19.040;2023-02-15T17:03:31;43.13;;;33.17;;
57730;SDS011;43570;47.476;19.040;2023-02-15T17:05:58;46.65;;;35.20;;
57730;SDS011;43570;47.476;19.040;2023-02-15T17:08:26;45.47;;;32.13;;
57730;SDS011;43570;47.476;19.040;2023-02-15T17:13:34;46.63;;;34.97;;
57730;SDS011;43570;47.476;19.040;2023-02-15T17:18:25;44.63;;;35.58;;
57730;SDS011;43570;47.476;19.040;2023-02-15T17:20:59;44.22;;;36.28;;
57730;SDS011;43570;47.476;19.040;2023-02-15T17:23:29;50.83;;;35.95;;
57730;SDS011;43570;47.476;19.040;2023-02-15T17:25:57;45.20;;;35.08;;
57730;SDS011;43570;47.476;19.040;2023-02-15T17:28:29;47.70;;;36.95;;
57730;SDS011;43570;47.476;19.040;2023-02-15T17:30:56;45.63;;;37.40;;
57730;SDS011;43570;47.476;19.040;2023-02-15T17:33:24;51.78;;;38.53;;
57730;SDS011;43570;47.476;19.040;2023-02-15T17:36:16;48.95;;;36.28;;
57730;SDS011;43570;47.476;19.040;2023-02-15T17:39:04;45.25;;;35.60;;
57730;SDS011;43570;47.476;19.040;2023-02-15T17:41:32;49.65;;;38.38;;
57730;SDS011;43570;47.476;19.040;2023-02-15T17:43:59;47.05;;;36.10;;
57730;SDS011;43570;47.476;19.040;2023-02-15T17:46:25;47.50;;;38.25;;
57730;SDS011;43570;47.476;19.040;2023-02-15T17:48:51;46.22;;;36.22;;
57730;SDS011;43570;47.476;19.040;2023-02-15T17:51:19;47.95;;;37.20;;
57730;SDS011;43570;47.476;19.040;2023-02-15T17:53:45;49.42;;;37.47;;
57730;SDS011;43570;47.476;19.040;2023-02-15T17:56:30;48.42;;;38.30;;
57730;SDS011;43570;47.476;19.040;2023-02-15T17:58:55;49.65;;;38.40;;
57730;SDS011;43570;47.476;19.040;2023-02-15T18:01:21;49.65;;;37.70;;
57730;SDS011;43570;47.476;19.040;2023-02-15T18:04:07;49.08;;;37.55;;
57730;SDS011;43570;47.476;19.040;2023-02-15T18:06:52;49.55;;;36.90;;